Time;durP1;ratioP1;P1;durP2;ratioP2;P2;SDS_P1;SDS_P2;PMS_P1;PMS_P2;Temp;Humidity;BMP_temperature;BMP_pressure;BME280_temperature;BME280_humidity;BME280_pressure;Samples;Min_cycle;Max_cycle;Signal;HPM_P1;HPM_P2
2023/06/25 00:02:01;;;;;;;9.52;6.93;;;;;;;;;;5013726;28;20049;-73
2023/06/25 00:04:27;;;;;;;10.95;8.10;;;;;;;;;;5021189;28;20069;-73
2023/06/25 00:06:53;;;;;;;8.70;7.45;;;;;;;;;;5026558;28;20053;-73
2023/06/25 00:09:19;;;;;;;10.63;8.55;;;;;;;;;;5026643;28;20045;-73
2023/06/25 00:11:44;;;;;;;10.70;7.68;;;;;;;;;;5025795;28;20048;-73
2023/06/25 00:14:10;;;;;;;10.90;8.55;;;;;;;;;;5021473;28;20061;-73
2023/06/25 00:16:35;;;;;;;10.35;8.68;;;;;;;;;;5026254;28;20176;-73
2023/06/25 00:19:01;;;;;;;10.95;8.32;;;;;;;;;;5007353;28;20049;-73
2023/06/25 00:21:27;;;;;;;9.98;8.60;;;;;;;;;;5023654;28;20041;-72
2023/06/25 00:23:52;;;;;;;10.05;7.90;;;;;;;;;;5021542;28;20057;-73
2023/06/25 00:26:18;;;;;;;10.88;7.20;;;;;;;;;;5019606;28;20053;-73
2023/06/25 00:28:44;;;;;;;10.10;7.28;;;;;;;;;;5009957;28;20049;-74
2023/06/25 00:31:14;;;;;;;8.07;6.60;;;;;;;;;;5026087;28;20053;-74
2023/06/25 00:33:41;;;;;;;9.38;6.40;;;;;;;;;;5036589;28;20045;-74
2023/06/25 00:36:07;;;;;;;8.23;6.45;;;;;;;;;;5016106;28;20060;-73
2023/06/25 00:38:37;;;;;;;12.55;7.30;;;;;;;;;;5031329;28;20044;-73
2023/06/25 00:41:06;;;;;;;6.97;6.05;;;;;;;;;;5021825;28;20398;-73
2023/06/25 00:43:32;;;;;;;10.93;6.82;;;;;;;;;;5026361;28;20041;-74
2023/06/25 00:45:59;;;;;;;8.60;6.38;;;;;;;;;;5032465;28;20154;-73
2023/06/25 00:48:24;;;;;;;9.80;6.38;;;;;;;;;;5032017;28;20160;-74
2023/06/25 00:50:50;;;;;;;11.98;7.35;;;;;;;;;;5018993;28;20593;-74
2023/06/25 00:53:16;;;;;;;8.70;6.60;;;;;;;;;;5031440;28;20504;-73
2023/06/25 00:55:42;;;;;;;8.10;6.43;;;;;;;;;;5036569;28;20051;-69
2023/06/25 00:58:08;;;;;;;7.18;5.93;;;;;;;;;;5026504;28;20045;-69
2023/06/25 01:00:34;;;;;;;6.70;5.75;;;;;;;;;;5031883;28;20077;-69
2023/06/25 01:03:13;;;;;;;6.82;5.57;;;;;;;;;;5030245;28;20041;-69
2023/06/25 01:05:53;;;;;;;11.77;6.97;;;;;;;;;;5032939;28;20045;-69
2023/06/25 01:08:21;;;;;;;8.30;6.13;;;;;;;;;;5050612;28;20075;-69
2023/06/25 01:10:47;;;;;;;9.05;6.63;;;;;;;;;;5038427;28;20041;-71
2023/06/25 01:13:12;;;;;;;9.20;6.30;;;;;;;;;;5030474;28;20092;-71
2023/06/25 01:15:38;;;;;;;7.60;6.57;;;;;;;;;;5034020;28;20120;-71
2023/06/25 01:18:04;;;;;;;7.57;5.88;;;;;;;;;;5029278;28;20077;-71
2023/06/25 01:20:30;;;;;;;8.90;6.25;;;;;;;;;;5031780;28;20041;-70
2023/06/25 01:22:56;;;;;;;10.05;6.30;;;;;;;;;;5029919;28;20379;-70
2023/06/25 01:25:22;;;;;;;8.10;6.18;;;;;;;;;;5013911;28;20060;-70
2023/06/25 01:27:52;;;;;;;10.65;6.20;;;;;;;;;;5034647;28;20448;-73
2023/06/25 01:30:20;;;;;;;8.23;6.15;;;;;;;;;;5035339;28;20501;-70
2023/06/25 01:32:46;;;;;;;7.50;6.20;;;;;;;;;;5033139;28;20049;-70
2023/06/25 01:35:12;;;;;;;8.88;6.82;;;;;;;;;;5032005;28;20049;-70
2023/06/25 01:37:38;;;;;;;8.70;6.60;;;;;;;;;;5030950;28;20064;-70
2023/06/25 01:40:07;;;;;;;8.82;6.50;;;;;;;;;;5031649;28;20506;-70
2023/06/25 01:42:33;;;;;;;9.93;6.75;;;;;;;;;;5030597;28;20075;-70
2023/06/25 01:44:59;;;;;;;8.02;6.55;;;;;;;;;;5033324;28;20049;-69
2023/06/25 01:47:24;;;;;;;7.53;6.53;;;;;;;;;;5032001;28;20106;-70
2023/06/25 01:49:49;;;;;;;11.23;7.15;;;;;;;;;;5033477;28;20045;-70
2023/06/25 01:52:15;;;;;;;8.95;7.10;;;;;;;;;;5031911;28;20389;-70
2023/06/25 01:54:40;;;;;;;9.70;6.88;;;;;;;;;;5036000;28;20094;-74
2023/06/25 01:57:06;;;;;;;10.23;7.20;;;;;;;;;;5030550;28;20098;-72
2023/06/25 01:59:34;;;;;;;10.85;6.65;;;;;;;;;;5018452;28;20102;-72
2023/06/25 02:02:01;;;;;;;9.75;7.38;;;;;;;;;;5031401;28;20060;-73
2023/06/25 02:04:27;;;;;;;8.48;7.05;;;;;;;;;;5013962;28;20049;-72
2023/06/25 02:06:52;;;;;;;13.98;7.00;;;;;;;;;;5032784;28;20109;-72
2023/06/25 02:09:18;;;;;;;10.63;7.55;;;;;;;;;;5032580;28;20556;-72
2023/06/25 02:11:44;;;;;;;8.98;7.18;;;;;;;;;;5031443;28;20053;-73
2023/06/25 02:14:09;;;;;;;13.40;7.55;;;;;;;;;;5029846;28;20049;-73
2023/06/25 02:16:35;;;;;;;14.15;7.65;;;;;;;;;;5032409;28;20054;-73
2023/06/25 02:19:00;;;;;;;9.85;7.18;;;;;;;;;;5035016;28;20493;-73
2023/06/25 02:21:26;;;;;;;11.10;7.20;;;;;;;;;;5015792;28;20076;-73
2023/06/25 02:23:51;;;;;;;9.55;7.32;;;;;;;;;;5031961;28;20064;-73
2023/06/25 02:26:16;;;;;;;7.80;6.55;;;;;;;;;;5033097;28;20045;-73
2023/06/25 02:28:42;;;;;;;9.60;7.43;;;;;;;;;;5035021;28;20045;-73
2023/06/25 02:31:07;;;;;;;10.50;7.53;;;;;;;;;;5022615;28;21072;-73
2023/06/25 02:33:33;;;;;;;10.52;7.35;;;;;;;;;;5034621;28;20047;-73
2023/06/25 02:35:58;;;;;;;7.28;6.22;;;;;;;;;;5035482;28;20049;-73
2023/06/25 02:38:24;;;;;;;10.60;6.53;;;;;;;;;;5026970;28;20044;-74
2023/06/25 02:40:49;;;;;;;7.97;6.20;;;;;;;;;;5015415;28;20510;-74
2023/06/25 02:43:15;;;;;;;8.23;6.13;;;;;;;;;;5028986;28;20057;-74
2023/06/25 02:45:40;;;;;;;8.57;6.18;;;;;;;;;;5031160;28;20095;-73
2023/06/25 02:48:06;;;;;;;12.77;7.35;;;;;;;;;;5013591;28;20037;-74
2023/06/25 02:50:32;;;;;;;10.02;6.82;;;;;;;;;;5028346;28;20053;-73
2023/06/25 02:52:58;;;;;;;14.70;7.85;;;;;;;;;;5029645;28;20137;-70
2023/06/25 02:55:23;;;;;;;11.32;8.07;;;;;;;;;;5033977;28;20141;-70
2023/06/25 02:57:49;;;;;;;12.18;8.18;;;;;;;;;;5029385;28;20132;-71
2023/06/25 03:00:15;;;;;;;10.57;7.93;;;;;;;;;;5030383;28;20502;-71
2023/06/25 03:02:40;;;;;;;10.60;8.25;;;;;;;;;;5013760;28;20043;-71
2023/06/25 03:05:07;;;;;;;11.52;8.00;;;;;;;;;;5030812;28;20067;-71
2023/06/25 03:07:34;;;;;;;10.38;7.20;;;;;;;;;;5031418;28;20119;-70
2023/06/25 03:10:00;;;;;;;8.85;6.88;;;;;;;;;;5028322;28;21079;-71
2023/06/25 03:12:26;;;;;;;9.27;6.57;;;;;;;;;;5028589;28;20139;-71
2023/06/25 03:14:51;;;;;;;8.63;6.25;;;;;;;;;;5029101;28;20049;-71
2023/06/25 03:17:16;;;;;;;10.70;6.65;;;;;;;;;;5026656;28;20052;-71
2023/06/25 03:19:42;;;;;;;8.98;6.43;;;;;;;;;;5033274;28;20529;-71
2023/06/25 03:22:08;;;;;;;7.88;5.90;;;;;;;;;;5026608;28;20132;-72
2023/06/25 03:24:36;;;;;;;8.18;6.28;;;;;;;;;;5030578;28;20052;-72
2023/06/25 03:27:02;;;;;;;8.02;6.05;;;;;;;;;;5031577;28;20049;-72
2023/06/25 03:29:28;;;;;;;10.10;5.88;;;;;;;;;;5029793;28;20405;-71
2023/06/25 03:31:54;;;;;;;11.85;6.20;;;;;;;;;;5030313;28;20045;-72
2023/06/25 03:34:22;;;;;;;5.68;4.75;;;;;;;;;;5033027;28;20049;-71
2023/06/25 03:36:47;;;;;;;6.63;4.75;;;;;;;;;;5031076;28;20386;-72
2023/06/25 03:39:13;;;;;;;8.73;5.00;;;;;;;;;;5030494;28;20090;-72
2023/06/25 03:41:39;;;;;;;5.10;4.43;;;;;;;;;;5047762;28;20045;-71
2023/06/25 03:44:05;;;;;;;5.13;4.25;;;;;;;;;;5029331;28;20060;-72
2023/06/25 03:46:32;;;;;;;7.50;4.63;;;;;;;;;;5033526;28;20140;-72
2023/06/25 03:48:57;;;;;;;5.78;4.20;;;;;;;;;;5032433;28;20869;-72
2023/06/25 03:51:24;;;;;;;7.43;4.10;;;;;;;;;;5032318;28;20053;-71
2023/06/25 03:53:49;;;;;;;7.55;4.13;;;;;;;;;;5030063;28;20099;-71
2023/06/25 03:56:15;;;;;;;5.45;4.53;;;;;;;;;;5029451;28;20103;-71
2023/06/25 03:58:40;;;;;;;6.50;4.63;;;;;;;;;;5028328;28;20041;-71
2023/06/25 04:01:06;;;;;;;5.28;3.80;;;;;;;;;;5030803;28;20060;-72
2023/06/25 04:03:31;;;;;;;6.05;4.28;;;;;;;;;;5031891;28;20037;-72
2023/06/25 04:05:57;;;;;;;4.72;4.18;;;;;;;;;;5029939;28;20046;-72
2023/06/25 04:08:22;;;;;;;5.43;4.55;;;;;;;;;;4998582;28;20513;-72
2023/06/25 04:10:50;;;;;;;5.35;4.50;;;;;;;;;;5031299;28;20054;-72
2023/06/25 04:13:16;;;;;;;10.00;4.90;;;;;;;;;;5030426;28;20083;-72
2023/06/25 04:15:42;;;;;;;5.90;4.45;;;;;;;;;;5034406;28;20115;-72
2023/06/25 04:18:08;;;;;;;8.77;4.93;;;;;;;;;;5000272;28;20457;-72
2023/06/25 04:20:33;;;;;;;7.57;4.50;;;;;;;;;;5017616;28;20048;-72
2023/06/25 04:23:00;;;;;;;6.43;4.88;;;;;;;;;;5034534;28;20053;-72
2023/06/25 04:25:25;;;;;;;7.65;4.55;;;;;;;;;;5028135;28;20054;-72
2023/06/25 04:27:54;;;;;;;8.55;4.50;;;;;;;;;;5012804;28;20513;-73
2023/06/25 04:30:19;;;;;;;7.68;4.80;;;;;;;;;;5017556;28;20053;-72
2023/06/25 04:32:49;;;;;;;5.85;5.10;;;;;;;;;;5029486;28;20099;-71
2023/06/25 04:35:18;;;;;;;6.22;5.20;;;;;;;;;;5030572;28;20053;-72
2023/06/25 04:37:45;;;;;;;6.28;4.78;;;;;;;;;;5035120;28;20041;-72
2023/06/25 04:40:12;;;;;;;8.57;5.15;;;;;;;;;;5025497;28;20053;-69
2023/06/25 04:42:38;;;;;;;8.73;5.28;;;;;;;;;;5037909;28;20060;-71
2023/06/25 04:45:04;;;;;;;12.15;4.93;;;;;;;;;;5021328;28;20037;-71
2023/06/25 04:47:29;;;;;;;5.90;4.43;;;;;;;;;;5037592;28;20568;-70
2023/06/25 04:49:55;;;;;;;5.78;4.57;;;;;;;;;;5033157;28;20073;-71
2023/06/25 04:52:20;;;;;;;6.20;4.82;;;;;;;;;;5030852;28;20056;-70
2023/06/25 04:54:46;;;;;;;5.43;4.80;;;;;;;;;;5016133;28;20176;-71
2023/06/25 04:57:11;;;;;;;6.18;4.28;;;;;;;;;;5029523;28;20094;-70
2023/06/25 04:59:37;;;;;;;6.18;4.82;;;;;;;;;;5022469;28;20038;-70
2023/06/25 05:02:02;;;;;;;5.45;4.53;;;;;;;;;;5024644;28;20057;-70
2023/06/25 05:04:28;;;;;;;7.32;5.00;;;;;;;;;;5041247;28;20041;-71
2023/06/25 05:06:54;;;;;;;5.85;4.53;;;;;;;;;;5030468;28;20414;-71
2023/06/25 05:09:20;;;;;;;6.03;4.07;;;;;;;;;;5031577;28;20136;-71
2023/06/25 05:11:46;;;;;;;5.15;4.43;;;;;;;;;;5032616;28;20037;-72
2023/06/25 05:14:11;;;;;;;5.55;4.18;;;;;;;;;;5035161;28;20360;-72
2023/06/25 05:16:37;;;;;;;5.18;4.28;;;;;;;;;;5033243;28;20098;-72
2023/06/25 05:19:02;;;;;;;4.75;4.25;;;;;;;;;;5029951;28;20391;-72
2023/06/25 05:21:28;;;;;;;6.75;4.57;;;;;;;;;;5025096;28;20588;-72
2023/06/25 05:23:58;;;;;;;7.60;4.60;;;;;;;;;;5030274;28;20045;-72
2023/06/25 05:26:24;;;;;;;5.25;4.47;;;;;;;;;;5025716;28;20528;-72
2023/06/25 05:28:49;;;;;;;5.00;4.13;;;;;;;;;;5030435;28;20052;-70
2023/06/25 05:31:15;;;;;;;7.22;4.60;;;;;;;;;;5032140;28;20139;-71
2023/06/25 05:33:40;;;;;;;6.25;4.72;;;;;;;;;;5034828;28;20056;-72
2023/06/25 05:36:06;;;;;;;5.65;4.55;;;;;;;;;;5035334;28;20081;-74
2023/06/25 05:38:31;;;;;;;6.00;4.30;;;;;;;;;;5030255;28;20121;-73
2023/06/25 05:40:57;;;;;;;6.05;4.22;;;;;;;;;;5024476;28;20055;-73
2023/06/25 05:43:22;;;;;;;6.63;4.20;;;;;;;;;;5026695;28;20107;-73
2023/06/25 05:45:47;;;;;;;5.85;4.28;;;;;;;;;;5029580;28;20053;-73
2023/06/25 05:48:13;;;;;;;6.00;4.38;;;;;;;;;;5027427;28;20145;-73
2023/06/25 05:50:38;;;;;;;5.35;4.00;;;;;;;;;;5029815;28;20143;-73
2023/06/25 05:53:04;;;;;;;9.07;4.18;;;;;;;;;;5027326;28;20065;-73
2023/06/25 05:55:30;;;;;;;5.55;4.00;;;;;;;;;;5034972;28;20056;-73
2023/06/25 05:57:55;;;;;;;5.93;4.30;;;;;;;;;;5026036;28;20049;-73
2023/06/25 06:00:22;;;;;;;5.53;4.30;;;;;;;;;;5029719;28;20041;-73
2023/06/25 06:02:47;;;;;;;5.03;4.53;;;;;;;;;;5022539;28;20037;-73
2023/06/25 06:05:13;;;;;;;5.70;4.28;;;;;;;;;;5028669;28;20060;-73
2023/06/25 06:07:38;;;;;;;11.38;4.70;;;;;;;;;;5028193;28;20057;-74
2023/06/25 06:10:04;;;;;;;5.10;4.60;;;;;;;;;;5027994;28;20053;-73
2023/06/25 06:12:29;;;;;;;5.70;4.70;;;;;;;;;;5021872;28;20053;-73
2023/06/25 06:14:55;;;;;;;10.45;4.63;;;;;;;;;;5034880;28;20049;-73
2023/06/25 06:17:21;;;;;;;5.40;4.15;;;;;;;;;;5023346;28;20097;-74
2023/06/25 06:19:46;;;;;;;4.60;4.20;;;;;;;;;;5031623;28;20117;-73
2023/06/25 06:22:13;;;;;;;4.43;4.03;;;;;;;;;;5023083;28;20052;-73
2023/06/25 06:24:38;;;;;;;6.63;4.60;;;;;;;;;;5021150;28;20051;-73
2023/06/25 06:27:05;;;;;;;6.03;4.20;;;;;;;;;;5024597;28;20046;-73
2023/06/25 06:29:30;;;;;;;4.88;4.35;;;;;;;;;;5027493;28;20072;-73
2023/06/25 06:31:56;;;;;;;4.93;4.03;;;;;;;;;;5034457;28;20422;-73
2023/06/25 06:34:21;;;;;;;5.32;4.40;;;;;;;;;;5022988;28;20103;-73
2023/06/25 06:36:47;;;;;;;5.82;4.35;;;;;;;;;;5020817;28;20979;-73
2023/06/25 06:39:14;;;;;;;5.53;4.25;;;;;;;;;;5025663;28;20127;-73
2023/06/25 06:41:39;;;;;;;6.07;4.25;;;;;;;;;;5027705;28;20044;-73
2023/06/25 06:44:15;;;;;;;7.50;4.38;;;;;;;;;;5026907;28;20053;-73
2023/06/25 06:46:42;;;;;;;6.13;3.83;;;;;;;;;;5027568;28;20046;-72
2023/06/25 06:49:08;;;;;;;4.28;3.88;;;;;;;;;;5019969;28;20046;-73
2023/06/25 06:51:34;;;;;;;4.85;4.05;;;;;;;;;;5019942;28;20038;-73
2023/06/25 06:54:00;;;;;;;5.53;4.25;;;;;;;;;;5034161;28;20505;-73
2023/06/25 06:56:25;;;;;;;4.40;4.00;;;;;;;;;;5030304;28;20140;-73
2023/06/25 06:58:51;;;;;;;5.20;4.25;;;;;;;;;;5020861;28;20045;-72
2023/06/25 07:01:16;;;;;;;5.03;3.47;;;;;;;;;;5019838;28;20061;-71
2023/06/25 07:03:42;;;;;;;7.15;4.07;;;;;;;;;;5030010;28;20048;-73
2023/06/25 07:06:08;;;;;;;6.63;3.65;;;;;;;;;;5030790;28;20091;-73
2023/06/25 07:08:33;;;;;;;4.32;3.53;;;;;;;;;;5023705;28;20482;-73
2023/06/25 07:10:58;;;;;;;5.80;4.47;;;;;;;;;;5036877;28;20056;-73
2023/06/25 07:13:24;;;;;;;4.38;3.92;;;;;;;;;;5026952;28;20049;-74
2023/06/25 07:15:50;;;;;;;4.18;3.65;;;;;;;;;;5031920;28;20609;-73
2023/06/25 07:18:16;;;;;;;4.57;3.55;;;;;;;;;;5031204;28;20062;-73
2023/06/25 07:20:41;;;;;;;5.15;3.80;;;;;;;;;;5027823;28;20049;-73
2023/06/25 07:23:06;;;;;;;4.40;3.45;;;;;;;;;;5026837;28;21463;-73
2023/06/25 07:25:32;;;;;;;5.05;3.70;;;;;;;;;;5025492;28;20041;-72
2023/06/25 07:27:57;;;;;;;8.68;3.20;;;;;;;;;;5027559;28;20055;-72
2023/06/25 07:30:23;;;;;;;4.03;3.40;;;;;;;;;;5024739;28;20061;-72
2023/06/25 07:32:48;;;;;;;6.80;3.80;;;;;;;;;;5003551;28;20041;-72
2023/06/25 07:35:14;;;;;;;5.13;3.97;;;;;;;;;;5024553;28;20095;-72
2023/06/25 07:37:40;;;;;;;3.65;3.28;;;;;;;;;;5026962;28;20041;-72
2023/06/25 07:40:06;;;;;;;4.28;3.88;;;;;;;;;;5009658;28;20132;-72
2023/06/25 07:42:32;;;;;;;4.28;3.70;;;;;;;;;;5026172;28;20041;-72
2023/06/25 07:44:57;;;;;;;4.10;3.50;;;;;;;;;;5027828;28;20044;-73
2023/06/25 07:47:23;;;;;;;4.00;3.60;;;;;;;;;;5025505;28;20156;-73
2023/06/25 07:49:49;;;;;;;7.32;3.92;;;;;;;;;;5019579;28;20045;-73
2023/06/25 07:52:14;;;;;;;4.28;3.78;;;;;;;;;;5026545;28;20048;-73
2023/06/25 07:54:40;;;;;;;3.67;3.38;;;;;;;;;;5029097;28;20049;-73
2023/06/25 07:57:06;;;;;;;4.45;3.58;;;;;;;;;;5026434;28;20120;-74
2023/06/25 07:59:32;;;;;;;3.95;3.50;;;;;;;;;;5026756;28;20029;-73
2023/06/25 08:01:58;;;;;;;6.28;3.88;;;;;;;;;;5027311;28;20165;-73
2023/06/25 08:04:23;;;;;;;4.45;3.85;;;;;;;;;;5030797;28;20136;-73
2023/06/25 08:06:49;;;;;;;6.55;4.20;;;;;;;;;;5029557;28;20049;-73
2023/06/25 08:09:14;;;;;;;6.80;3.85;;;;;;;;;;5028462;28;20079;-73
2023/06/25 08:11:40;;;;;;;4.22;3.75;;;;;;;;;;5030101;28;20939;-73
2023/06/25 08:14:06;;;;;;;4.32;3.45;;;;;;;;;;5029989;28;20168;-74
2023/06/25 08:16:31;;;;;;;5.00;4.05;;;;;;;;;;5035764;28;20065;-73
2023/06/25 08:18:57;;;;;;;4.05;3.65;;;;;;;;;;5032127;28;20045;-73
2023/06/25 08:21:23;;;;;;;8.43;4.00;;;;;;;;;;5031844;28;20083;-73
2023/06/25 08:23:48;;;;;;;4.15;3.50;;;;;;;;;;5034717;28;20045;-73
2023/06/25 08:26:15;;;;;;;5.45;3.67;;;;;;;;;;5026359;28;20415;-73
2023/06/25 08:28:42;;;;;;;4.13;3.72;;;;;;;;;;5021926;28;20457;-74
2023/06/25 08:31:08;;;;;;;4.68;3.92;;;;;;;;;;5033606;28;20049;-72
2023/06/25 08:33:34;;;;;;;4.40;4.00;;;;;;;;;;5028502;28;20049;-73
2023/06/25 08:36:00;;;;;;;4.47;4.03;;;;;;;;;;5030963;28;20099;-73
2023/06/25 08:38:26;;;;;;;6.15;4.05;;;;;;;;;;5032360;28;20045;-72
2023/06/25 08:40:53;;;;;;;4.88;4.38;;;;;;;;;;5033627;28;20045;-73
2023/06/25 08:43:19;;;;;;;4.30;3.90;;;;;;;;;;5030109;28;20053;-72
2023/06/25 08:45:46;;;;;;;6.07;3.92;;;;;;;;;;5033385;28;20118;-73
2023/06/25 08:48:13;;;;;;;4.30;3.90;;;;;;;;;;5031074;28;20056;-73
2023/06/25 08:50:41;;;;;;;9.05;3.65;;;;;;;;;;5033517;28;20046;-73
2023/06/25 08:53:07;;;;;;;7.18;4.28;;;;;;;;;;5027937;28;20053;-73
2023/06/25 08:55:34;;;;;;;4.43;3.58;;;;;;;;;;5012911;28;20056;-72
2023/06/25 08:58:00;;;;;;;3.95;3.58;;;;;;;;;;5033172;28;20049;-73
2023/06/25 09:00:26;;;;;;;4.57;4.03;;;;;;;;;;5029934;28;20053;-73
2023/06/25 09:02:53;;;;;;;6.47;4.90;;;;;;;;;;5033231;28;20052;-73
2023/06/25 09:05:27;;;;;;;4.20;3.55;;;;;;;;;;5029872;28;20071;-73
2023/06/25 09:07:53;;;;;;;4.38;3.75;;;;;;;;;;5023641;28;20068;-76
2023/06/25 09:10:19;;;;;;;4.00;3.45;;;;;;;;;;5031698;28;20049;-73
2023/06/25 09:12:47;;;;;;;6.18;3.88;;;;;;;;;;5031674;28;20049;-73
2023/06/25 09:15:12;;;;;;;4.35;3.60;;;;;;;;;;5020638;28;20437;-73
2023/06/25 09:17:38;;;;;;;4.78;3.83;;;;;;;;;;5025512;28;20045;-72
2023/06/25 09:20:07;;;;;;;5.45;3.80;;;;;;;;;;5024541;28;20049;-72
2023/06/25 09:22:33;;;;;;;4.28;3.78;;;;;;;;;;5034215;28;20494;-72
2023/06/25 09:24:59;;;;;;;4.13;3.67;;;;;;;;;;5026189;28;20037;-72
2023/06/25 09:27:24;;;;;;;4.05;3.70;;;;;;;;;;5028613;28;20041;-71
2023/06/25 09:29:55;;;;;;;3.92;3.58;;;;;;;;;;5025582;28;20119;-72
2023/06/25 09:32:20;;;;;;;5.70;3.87;;;;;;;;;;5014121;28;20104;-72
2023/06/25 09:34:46;;;;;;;5.13;3.80;;;;;;;;;;5007498;28;20291;-72
2023/06/25 09:37:12;;;;;;;5.85;4.28;;;;;;;;;;5020061;28;20049;-72
2023/06/25 09:39:38;;;;;;;4.28;3.65;;;;;;;;;;5026416;28;20767;-72
2023/06/25 09:42:05;;;;;;;6.65;3.60;;;;;;;;;;5026167;28;20883;-71
2023/06/25 09:44:33;;;;;;;4.18;3.78;;;;;;;;;;5023602;28;20160;-72
2023/06/25 09:47:03;;;;;;;9.45;3.70;;;;;;;;;;5025653;28;20041;-72
2023/06/25 09:49:31;;;;;;;3.90;3.50;;;;;;;;;;4989721;28;20048;-72
2023/06/25 09:52:12;;;;;;;5.10;4.00;;;;;;;;;;5021622;28;20137;-72
2023/06/25 09:54:40;;;;;;;7.68;3.70;;;;;;;;;;5024352;28;20050;-73
2023/06/25 09:57:12;;;;;;;5.97;3.70;;;;;;;;;;5023192;28;20092;-72
2023/06/25 09:59:38;;;;;;;3.58;3.28;;;;;;;;;;5023991;28;20037;-72
2023/06/25 10:02:07;;;;;;;4.25;3.85;;;;;;;;;;5020835;28;20045;-72
2023/06/25 10:04:34;;;;;;;4.50;4.05;;;;;;;;;;5025957;28;20126;-74
2023/06/25 10:07:01;;;;;;;4.95;4.45;;;;;;;;;;5030595;28;20096;-73
2023/06/25 10:09:27;;;;;;;4.57;3.80;;;;;;;;;;5024043;28;20512;-73
2023/06/25 10:11:55;;;;;;;5.18;3.90;;;;;;;;;;5024956;28;20060;-73
2023/06/25 10:14:21;;;;;;;5.03;3.97;;;;;;;;;;5029445;28;20071;-73
2023/06/25 10:16:56;;;;;;;4.05;3.65;;;;;;;;;;5025044;28;20084;-73
2023/06/25 10:19:23;;;;;;;6.05;4.10;;;;;;;;;;5034713;28;20051;-72
2023/06/25 10:22:12;;;;;;;4.40;4.00;;;;;;;;;;5028648;28;20045;-73
2023/06/25 10:24:39;;;;;;;4.20;3.80;;;;;;;;;;5046550;28;20135;-73
2023/06/25 10:27:04;;;;;;;4.95;3.85;;;;;;;;;;5027732;28;20045;-72
2023/06/25 10:29:41;;;;;;;4.93;4.25;;;;;;;;;;5020898;28;20049;-73
2023/06/25 10:32:07;;;;;;;4.82;4.10;;;;;;;;;;5030312;28;20175;-73
2023/06/25 10:34:37;;;;;;;4.97;3.83;;;;;;;;;;5031061;28;20045;-74
2023/06/25 10:37:04;;;;;;;4.40;4.00;;;;;;;;;;5029223;28;20052;-73
2023/06/25 10:39:37;;;;;;;6.82;4.28;;;;;;;;;;5026695;28;20137;-74
2023/06/25 10:42:03;;;;;;;6.93;3.83;;;;;;;;;;5030101;28;20052;-74
2023/06/25 10:44:29;;;;;;;6.82;5.07;;;;;;;;;;5030986;28;20118;-74
2023/06/25 10:47:08;;;;;;;5.65;5.05;;;;;;;;;;5029411;28;20935;-73
2023/06/25 10:49:34;;;;;;;4.88;4.40;;;;;;;;;;5029434;28;20045;-70
2023/06/25 10:52:01;;;;;;;7.25;4.00;;;;;;;;;;5030264;28;20053;-71
2023/06/25 10:54:27;;;;;;;5.18;4.38;;;;;;;;;;5030337;28;20477;-71
2023/06/25 10:57:08;;;;;;;5.80;5.20;;;;;;;;;;5029117;28;20052;-70
2023/06/25 10:59:34;;;;;;;5.47;4.32;;;;;;;;;;5029027;28;20073;-71
2023/06/25 11:02:17;;;;;;;6.47;3.85;;;;;;;;;;5031286;28;20137;-72
2023/06/25 11:04:51;;;;;;;5.30;4.18;;;;;;;;;;5027199;28;20045;-73
2023/06/25 11:07:18;;;;;;;4.88;4.25;;;;;;;;;;5024353;28;20057;-69
2023/06/25 11:09:45;;;;;;;4.53;4.13;;;;;;;;;;5029562;28;21000;-69
2023/06/25 11:12:10;;;;;;;6.13;4.22;;;;;;;;;;5030445;28;20045;-70
2023/06/25 11:14:36;;;;;;;5.78;5.07;;;;;;;;;;5027802;28;20102;-70
2023/06/25 11:17:01;;;;;;;6.55;5.85;;;;;;;;;;5031599;28;20080;-70
2023/06/25 11:19:29;;;;;;;4.85;4.40;;;;;;;;;;5027744;28;20076;-70
2023/06/25 11:21:54;;;;;;;7.05;4.15;;;;;;;;;;5029922;28;20460;-71
2023/06/25 11:24:20;;;;;;;5.13;4.63;;;;;;;;;;5027832;28;20495;-70
2023/06/25 11:26:46;;;;;;;5.35;4.85;;;;;;;;;;5029240;28;20119;-71
2023/06/25 11:29:12;;;;;;;5.43;4.90;;;;;;;;;;5027868;28;20041;-71
2023/06/25 11:31:44;;;;;;;5.15;4.57;;;;;;;;;;5020898;28;20232;-71
2023/06/25 11:34:19;;;;;;;5.07;4.57;;;;;;;;;;5017472;28;20059;-70
2023/06/25 11:36:45;;;;;;;5.97;4.88;;;;;;;;;;5016425;28;20049;-72
2023/06/25 11:39:10;;;;;;;6.13;4.35;;;;;;;;;;5025959;28;20045;-70
2023/06/25 11:41:36;;;;;;;5.28;4.43;;;;;;;;;;5024834;28;20459;-70
2023/06/25 11:44:01;;;;;;;6.57;4.50;;;;;;;;;;5016162;28;20056;-70
2023/06/25 11:46:27;;;;;;;5.43;4.53;;;;;;;;;;5027254;28;20450;-71
2023/06/25 11:48:52;;;;;;;5.72;4.70;;;;;;;;;;5017064;28;20053;-71
2023/06/25 11:51:17;;;;;;;6.10;5.15;;;;;;;;;;5028634;28;20053;-70
2023/06/25 11:53:43;;;;;;;6.38;5.10;;;;;;;;;;5018120;28;20049;-72
2023/06/25 11:56:08;;;;;;;5.63;4.75;;;;;;;;;;5017357;28;20458;-72
2023/06/25 11:58:34;;;;;;;5.35;4.85;;;;;;;;;;5017725;28;20048;-71
2023/06/25 12:00:59;;;;;;;5.93;4.93;;;;;;;;;;5017793;28;20056;-73
2023/06/25 12:03:25;;;;;;;6.60;4.80;;;;;;;;;;5018338;28;20091;-73
2023/06/25 12:05:50;;;;;;;5.95;4.88;;;;;;;;;;5022687;28;20749;-72
2023/06/25 12:08:16;;;;;;;6.00;4.82;;;;;;;;;;5012990;28;20053;-72
2023/06/25 12:10:41;;;;;;;5.82;5.05;;;;;;;;;;5017252;28;20046;-71
2023/06/25 12:13:07;;;;;;;8.95;5.03;;;;;;;;;;5025856;28;20052;-71
2023/06/25 12:15:32;;;;;;;8.55;4.82;;;;;;;;;;5018776;28;20049;-71
2023/06/25 12:17:58;;;;;;;5.80;5.00;;;;;;;;;;5018334;28;20103;-71
2023/06/25 12:20:23;;;;;;;6.00;5.10;;;;;;;;;;5001389;28;20041;-73
2023/06/25 12:22:49;;;;;;;5.50;4.88;;;;;;;;;;5002109;28;20619;-74
2023/06/25 12:25:14;;;;;;;5.45;4.95;;;;;;;;;;5027693;28;20414;-72
2023/06/25 12:27:40;;;;;;;5.88;4.60;;;;;;;;;;5032187;28;20063;-73
2023/06/25 12:30:07;;;;;;;8.50;4.78;;;;;;;;;;5028124;28;20444;-73
2023/06/25 12:32:33;;;;;;;5.90;5.00;;;;;;;;;;5012573;28;20936;-72
2023/06/25 12:34:58;;;;;;;5.90;4.38;;;;;;;;;;5018086;28;20056;-73
2023/06/25 12:37:24;;;;;;;5.78;4.63;;;;;;;;;;5021259;28;20072;-73
2023/06/25 12:39:49;;;;;;;6.55;4.55;;;;;;;;;;5021114;28;20053;-72
2023/06/25 12:42:14;;;;;;;8.00;4.30;;;;;;;;;;5018662;28;20068;-73
2023/06/25 12:44:40;;;;;;;4.85;4.35;;;;;;;;;;5022869;28;20050;-74
2023/06/25 12:47:05;;;;;;;4.65;4.20;;;;;;;;;;5030137;28;20048;-73
2023/06/25 12:49:31;;;;;;;4.82;4.32;;;;;;;;;;5020247;28;20046;-74
2023/06/25 12:51:56;;;;;;;8.30;4.47;;;;;;;;;;5020593;28;20077;-73
2023/06/25 12:54:22;;;;;;;7.03;4.85;;;;;;;;;;5026195;28;20060;-73
2023/06/25 12:56:47;;;;;;;6.13;4.78;;;;;;;;;;5024393;28;20150;-73
2023/06/25 12:59:13;;;;;;;4.75;4.30;;;;;;;;;;5025456;28;20092;-75
2023/06/25 13:01:38;;;;;;;4.53;4.07;;;;;;;;;;5020773;28;20061;-74
2023/06/25 13:04:04;;;;;;;7.82;4.60;;;;;;;;;;5029454;28;20136;-74
2023/06/25 13:06:29;;;;;;;4.55;4.15;;;;;;;;;;5022226;28;20053;-74
2023/06/25 13:08:55;;;;;;;5.35;4.28;;;;;;;;;;5027080;28;20091;-74
2023/06/25 13:11:20;;;;;;;5.47;4.38;;;;;;;;;;5020616;28;20100;-72
2023/06/25 13:13:46;;;;;;;4.85;4.40;;;;;;;;;;5024894;28;20057;-73
2023/06/25 13:16:12;;;;;;;4.78;4.20;;;;;;;;;;5026949;28;20111;-71
2023/06/25 13:18:40;;;;;;;7.90;4.53;;;;;;;;;;5033193;28;20072;-71
2023/06/25 13:21:07;;;;;;;5.38;4.53;;;;;;;;;;5028262;28;20080;-72
2023/06/25 13:23:32;;;;;;;6.90;4.53;;;;;;;;;;5032069;28;21158;-71
2023/06/25 13:25:58;;;;;;;4.95;4.43;;;;;;;;;;5030210;28;20379;-72
2023/06/25 13:28:24;;;;;;;5.60;4.63;;;;;;;;;;5025327;28;20044;-72
2023/06/25 13:30:50;;;;;;;5.18;4.68;;;;;;;;;;5020778;28;20565;-72
2023/06/25 13:33:15;;;;;;;6.50;5.15;;;;;;;;;;5020402;28;20068;-73
2023/06/25 13:35:41;;;;;;;4.95;4.43;;;;;;;;;;5026571;28;20131;-73
2023/06/25 13:38:06;;;;;;;5.15;4.28;;;;;;;;;;5013585;28;20041;-72
2023/06/25 13:40:32;;;;;;;8.52;4.32;;;;;;;;;;5016946;28;20525;-72
2023/06/25 13:43:01;;;;;;;6.78;4.30;;;;;;;;;;5022022;28;20128;-72
2023/06/25 13:45:27;;;;;;;4.70;4.30;;;;;;;;;;5020626;28;20075;-72
2023/06/25 13:47:52;;;;;;;5.13;4.57;;;;;;;;;;5024411;28;20041;-72
2023/06/25 13:50:18;;;;;;;4.40;4.00;;;;;;;;;;5020034;28;20049;-72
2023/06/25 13:52:43;;;;;;;5.65;4.53;;;;;;;;;;5011129;28;21253;-75
2023/06/25 13:55:09;;;;;;;4.85;4.40;;;;;;;;;;5028530;28;20095;-72
2023/06/25 13:57:34;;;;;;;5.30;4.60;;;;;;;;;;5025353;28;20053;-72
2023/06/25 13:59:59;;;;;;;5.65;4.60;;;;;;;;;;5024465;28;20041;-73
2023/06/25 14:02:25;;;;;;;4.30;3.90;;;;;;;;;;5022471;28;20053;-73
2023/06/25 14:04:50;;;;;;;6.25;4.47;;;;;;;;;;5025630;28;20111;-72
2023/06/25 14:07:16;;;;;;;4.90;4.40;;;;;;;;;;5026429;28;20045;-72
2023/06/25 14:09:41;;;;;;;5.20;4.70;;;;;;;;;;5028389;28;20049;-72
2023/06/25 14:12:07;;;;;;;4.95;4.35;;;;;;;;;;5023668;28;20053;-72
2023/06/25 14:14:32;;;;;;;5.22;4.28;;;;;;;;;;5027747;28;20048;-73
2023/06/25 14:16:58;;;;;;;4.85;4.15;;;;;;;;;;5023268;28;20053;-73
2023/06/25 14:19:23;;;;;;;5.75;4.55;;;;;;;;;;5029346;28;20059;-72
2023/06/25 14:21:49;;;;;;;4.78;4.32;;;;;;;;;;5026997;28;20053;-72
2023/06/25 14:24:14;;;;;;;4.60;4.20;;;;;;;;;;5028251;28;20126;-73
2023/06/25 14:26:39;;;;;;;4.68;4.10;;;;;;;;;;5022000;28;20042;-73
2023/06/25 14:29:05;;;;;;;6.15;4.50;;;;;;;;;;5026968;28;20064;-71
2023/06/25 14:31:30;;;;;;;5.30;4.60;;;;;;;;;;5028351;28;20110;-70
2023/06/25 14:33:56;;;;;;;5.97;4.00;;;;;;;;;;5027461;28;20055;-71
2023/06/25 14:36:21;;;;;;;5.88;4.32;;;;;;;;;;5020295;28;20136;-71